sensor_id;sensor_type;location;lat;lon;timestamp;P1;durP1;ratioP1;P2;durP2;ratioP2
68256;SDS011;55069;51.568;4.656;2023-04-03T00:00:32;10.25;;;5.18;;
68256;SDS011;55069;51.568;4.656;2023-04-03T00:02:58;6.73;;;4.77;;
68256;SDS011;55069;51.568;4.656;2023-04-03T00:05:23;15.90;;;4.90;;
68256;SDS011;55069;51.568;4.656;2023-04-03T00:07:49;6.57;;;4.43;;
68256;SDS011;55069;51.568;4.656;2023-04-03T00:10:15;9.93;;;4.57;;
68256;SDS011;55069;51.568;4.656;2023-04-03T00:12:41;9.00;;;4.65;;
68256;SDS011;55069;51.568;4.656;2023-04-03T00:15:07;9.37;;;3.67;;
68256;SDS011;55069;51.568;4.656;2023-04-03T00:17:34;5.97;;;4.03;;
68256;SDS011;55069;51.568;4.656;2023-04-03T00:20:03;7.85;;;3.60;;
68256;SDS011;55069;51.568;4.656;2023-04-03T00:22:30;7.18;;;3.47;;
68256;SDS011;55069;51.568;4.656;2023-04-03T00:24:56;5.60;;;3.43;;
68256;SDS011;55069;51.568;4.656;2023-04-03T00:27:22;7.13;;;3.70;;
68256;SDS011;55069;51.568;4.656;2023-04-03T00:29:47;5.83;;;3.30;;
68256;SDS011;55069;51.568;4.656;2023-04-03T00:32:13;6.72;;;2.92;;
68256;SDS011;55069;51.568;4.656;2023-04-03T00:34:39;4.82;;;3.05;;
68256;SDS011;55069;51.568;4.656;2023-04-03T00:37:05;8.27;;;3.17;;
68256;SDS011;55069;51.568;4.656;2023-04-03T00:39:31;5.45;;;3.10;;
68256;SDS011;55069;51.568;4.656;2023-04-03T00:41:56;4.37;;;2.77;;
68256;SDS011;55069;51.568;4.656;2023-04-03T00:45:22;5.35;;;2.78;;
68256;SDS011;55069;51.568;4.656;2023-04-03T00:47:11;7.03;;;2.72;;
68256;SDS011;55069;51.568;4.656;2023-04-03T00:49:41;7.67;;;2.87;;
68256;SDS011;55069;51.568;4.656;2023-04-03T00:52:08;3.55;;;2.50;;
68256;SDS011;55069;51.568;4.656;2023-04-03T00:54:38;5.50;;;3.08;;
68256;SDS011;55069;51.568;4.656;2023-04-03T00:57:05;5.18;;;2.38;;
68256;SDS011;55069;51.568;4.656;2023-04-03T00:59:34;8.32;;;3.42;;
68256;SDS011;55069;51.568;4.656;2023-04-03T01:02:02;6.07;;;2.60;;
68256;SDS011;55069;51.568;4.656;2023-04-03T01:04:32;4.93;;;2.42;;
68256;SDS011;55069;51.568;4.656;2023-04-03T01:07:03;4.85;;;2.75;;
68256;SDS011;55069;51.568;4.656;2023-04-03T01:09:32;5.60;;;2.60;;
68256;SDS011;55069;51.568;4.656;2023-04-03T01:14:45;5.85;;;2.50;;
68256;SDS011;55069;51.568;4.656;2023-04-03T01:17:28;4.68;;;2.92;;
68256;SDS011;55069;51.568;4.656;2023-04-03T01:22:53;6.23;;;2.60;;
68256;SDS011;55069;51.568;4.656;2023-04-03T01:25:31;4.20;;;2.67;;
68256;SDS011;55069;51.568;4.656;2023-04-03T01:27:58;8.00;;;2.70;;
68256;SDS011;55069;51.568;4.656;2023-04-03T01:30:26;7.00;;;2.88;;
68256;SDS011;55069;51.568;4.656;2023-04-03T01:32:57;5.80;;;2.90;;
68256;SDS011;55069;51.568;4.656;2023-04-03T01:35:23;6.78;;;2.80;;
68256;SDS011;55069;51.568;4.656;2023-04-03T01:37:51;6.53;;;2.72;;
68256;SDS011;55069;51.568;4.656;2023-04-03T01:40:16;7.33;;;3.00;;
68256;SDS011;55069;51.568;4.656;2023-04-03T01:42:43;8.45;;;3.08;;
68256;SDS011;55069;51.568;4.656;2023-04-03T01:45:09;4.87;;;2.43;;
68256;SDS011;55069;51.568;4.656;2023-04-03T01:47:35;5.43;;;2.67;;
68256;SDS011;55069;51.568;4.656;2023-04-03T01:50:00;4.55;;;2.33;;
68256;SDS011;55069;51.568;4.656;2023-04-03T01:52:29;7.43;;;2.47;;
68256;SDS011;55069;51.568;4.656;2023-04-03T01:54:55;6.75;;;2.72;;
68256;SDS011;55069;51.568;4.656;2023-04-03T01:57:21;5.57;;;2.47;;
68256;SDS011;55069;51.568;4.656;2023-04-03T01:59:47;4.87;;;2.30;;
68256;SDS011;55069;51.568;4.656;2023-04-03T02:02:12;7.50;;;2.60;;
68256;SDS011;55069;51.568;4.656;2023-04-03T02:04:40;2.90;;;1.92;;
68256;SDS011;55069;51.568;4.656;2023-04-03T02:07:06;3.75;;;2.33;;
68256;SDS011;55069;51.568;4.656;2023-04-03T02:09:32;5.10;;;2.55;;
68256;SDS011;55069;51.568;4.656;2023-04-03T02:11:57;5.63;;;2.40;;
68256;SDS011;55069;51.568;4.656;2023-04-03T02:14:23;8.93;;;2.80;;
68256;SDS011;55069;51.568;4.656;2023-04-03T02:16:49;5.32;;;2.80;;
68256;SDS011;55069;51.568;4.656;2023-04-03T02:19:15;9.23;;;2.97;;
68256;SDS011;55069;51.568;4.656;2023-04-03T02:21:41;5.93;;;3.20;;
68256;SDS011;55069;51.568;4.656;2023-04-03T02:24:07;5.50;;;2.77;;
68256;SDS011;55069;51.568;4.656;2023-04-03T02:26:33;4.97;;;2.20;;
68256;SDS011;55069;51.568;4.656;2023-04-03T02:28:59;10.25;;;3.13;;
68256;SDS011;55069;51.568;4.656;2023-04-03T02:31:25;9.43;;;2.90;;
68256;SDS011;55069;51.568;4.656;2023-04-03T02:33:51;4.15;;;2.83;;
68256;SDS011;55069;51.568;4.656;2023-04-03T02:36:17;3.80;;;2.30;;
68256;SDS011;55069;51.568;4.656;2023-04-03T02:38:49;5.63;;;2.95;;
68256;SDS011;55069;51.568;4.656;2023-04-03T02:41:15;5.50;;;2.58;;
68256;SDS011;55069;51.568;4.656;2023-04-03T02:43:41;4.80;;;2.53;;
68256;SDS011;55069;51.568;4.656;2023-04-03T02:46:07;6.63;;;2.63;;
68256;SDS011;55069;51.568;4.656;2023-04-03T02:48:33;7.28;;;3.08;;
68256;SDS011;55069;51.568;4.656;2023-04-03T02:50:59;5.30;;;2.13;;
68256;SDS011;55069;51.568;4.656;2023-04-03T02:53:26;5.53;;;2.38;;
68256;SDS011;55069;51.568;4.656;2023-04-03T02:55:52;4.85;;;2.95;;
68256;SDS011;55069;51.568;4.656;2023-04-03T02:58:17;6.13;;;2.93;;
68256;SDS011;55069;51.568;4.656;2023-04-03T03:00:43;3.67;;;2.28;;
68256;SDS011;55069;51.568;4.656;2023-04-03T03:03:09;5.45;;;2.50;;
68256;SDS011;55069;51.568;4.656;2023-04-03T03:05:35;8.53;;;2.70;;
68256;SDS011;55069;51.568;4.656;2023-04-03T03:08:01;4.95;;;2.42;;
68256;SDS011;55069;51.568;4.656;2023-04-03T03:10:27;3.40;;;2.20;;
68256;SDS011;55069;51.568;4.656;2023-04-03T03:12:52;6.53;;;2.70;;
68256;SDS011;55069;51.568;4.656;2023-04-03T03:15:18;8.13;;;2.27;;
68256;SDS011;55069;51.568;4.656;2023-04-03T03:17:44;4.85;;;2.33;;
68256;SDS011;55069;51.568;4.656;2023-04-03T03:20:10;7.70;;;3.13;;
68256;SDS011;55069;51.568;4.656;2023-04-03T03:22:37;6.93;;;3.10;;
68256;SDS011;55069;51.568;4.656;2023-04-03T03:25:03;4.30;;;2.22;;
68256;SDS011;55069;51.568;4.656;2023-04-03T03:27:30;7.05;;;2.42;;
68256;SDS011;55069;51.568;4.656;2023-04-03T03:29:55;5.27;;;2.73;;
68256;SDS011;55069;51.568;4.656;2023-04-03T03:32:21;5.45;;;2.28;;
68256;SDS011;55069;51.568;4.656;2023-04-03T03:34:47;8.27;;;2.90;;
68256;SDS011;55069;51.568;4.656;2023-04-03T03:37:13;7.72;;;3.15;;
68256;SDS011;55069;51.568;4.656;2023-04-03T03:39:38;7.60;;;2.83;;
68256;SDS011;55069;51.568;4.656;2023-04-03T03:42:04;6.85;;;2.25;;
68256;SDS011;55069;51.568;4.656;2023-04-03T03:44:30;6.77;;;2.67;;
68256;SDS011;55069;51.568;4.656;2023-04-03T03:46:56;8.13;;;3.22;;
68256;SDS011;55069;51.568;4.656;2023-04-03T03:49:22;5.87;;;2.90;;
68256;SDS011;55069;51.568;4.656;2023-04-03T03:51:48;5.65;;;2.72;;
68256;SDS011;55069;51.568;4.656;2023-04-03T03:54:14;4.97;;;2.70;;
68256;SDS011;55069;51.568;4.656;2023-04-03T03:56:39;5.65;;;2.58;;
68256;SDS011;55069;51.568;4.656;2023-04-03T03:59:05;6.47;;;2.30;;
68256;SDS011;55069;51.568;4.656;2023-04-03T04:01:31;4.68;;;2.55;;
68256;SDS011;55069;51.568;4.656;2023-04-03T04:03:57;8.32;;;3.55;;
68256;SDS011;55069;51.568;4.656;2023-04-03T04:06:28;4.28;;;2.08;;
68256;SDS011;55069;51.568;4.656;2023-04-03T04:08:57;6.60;;;2.63;;
68256;SDS011;55069;51.568;4.656;2023-04-03T04:11:23;4.10;;;2.58;;
68256;SDS011;55069;51.568;4.656;2023-04-03T04:13:51;5.35;;;2.47;;
68256;SDS011;55069;51.568;4.656;2023-04-03T04:16:19;9.45;;;3.53;;
68256;SDS011;55069;51.568;4.656;2023-04-03T04:18:45;7.22;;;2.92;;
68256;SDS011;55069;51.568;4.656;2023-04-03T04:21:10;5.07;;;2.78;;
68256;SDS011;55069;51.568;4.656;2023-04-03T04:23:37;4.93;;;2.88;;
68256;SDS011;55069;51.568;4.656;2023-04-03T04:26:03;5.32;;;2.45;;
68256;SDS011;55069;51.568;4.656;2023-04-03T04:28:33;7.43;;;2.90;;
68256;SDS011;55069;51.568;4.656;2023-04-03T04:31:00;4.20;;;2.85;;
68256;SDS011;55069;51.568;4.656;2023-04-03T04:33:27;4.88;;;2.75;;
68256;SDS011;55069;51.568;4.656;2023-04-03T04:35:53;8.30;;;3.08;;
68256;SDS011;55069;51.568;4.656;2023-04-03T04:38:20;5.27;;;2.90;;
68256;SDS011;55069;51.568;4.656;2023-04-03T04:40:47;7.47;;;2.80;;
68256;SDS011;55069;51.568;4.656;2023-04-03T04:43:14;5.65;;;2.70;;
68256;SDS011;55069;51.568;4.656;2023-04-03T04:45:41;8.43;;;3.10;;
68256;SDS011;55069;51.568;4.656;2023-04-03T04:48:08;6.03;;;2.90;;
68256;SDS011;55069;51.568;4.656;2023-04-03T04:50:34;9.95;;;3.28;;
68256;SDS011;55069;51.568;4.656;2023-04-03T04:53:00;5.40;;;3.03;;
68256;SDS011;55069;51.568;4.656;2023-04-03T04:55:26;5.13;;;2.95;;
68256;SDS011;55069;51.568;4.656;2023-04-03T04:57:51;8.60;;;3.57;;
68256;SDS011;55069;51.568;4.656;2023-04-03T05:00:18;7.95;;;3.35;;
68256;SDS011;55069;51.568;4.656;2023-04-03T05:02:44;5.55;;;2.72;;
68256;SDS011;55069;51.568;4.656;2023-04-03T05:05:10;8.77;;;2.60;;
68256;SDS011;55069;51.568;4.656;2023-04-03T05:07:37;6.35;;;2.90;;
68256;SDS011;55069;51.568;4.656;2023-04-03T05:10:03;4.45;;;2.63;;
68256;SDS011;55069;51.568;4.656;2023-04-03T05:12:30;7.47;;;2.67;;
68256;SDS011;55069;51.568;4.656;2023-04-03T05:14:59;9.82;;;2.85;;
68256;SDS011;55069;51.568;4.656;2023-04-03T05:17:28;6.03;;;2.75;;
68256;SDS011;55069;51.568;4.656;2023-04-03T05:19:55;7.87;;;3.23;;
68256;SDS011;55069;51.568;4.656;2023-04-03T05:22:23;8.82;;;3.42;;
68256;SDS011;55069;51.568;4.656;2023-04-03T05:24:51;8.93;;;3.35;;
68256;SDS011;55069;51.568;4.656;2023-04-03T05:27:18;7.68;;;2.80;;
68256;SDS011;55069;51.568;4.656;2023-04-03T05:29:50;6.73;;;2.87;;
68256;SDS011;55069;51.568;4.656;2023-04-03T05:32:19;8.52;;;3.50;;
68256;SDS011;55069;51.568;4.656;2023-04-03T05:34:49;6.00;;;2.97;;
68256;SDS011;55069;51.568;4.656;2023-04-03T05:37:18;5.57;;;3.10;;
68256;SDS011;55069;51.568;4.656;2023-04-03T05:39:45;11.00;;;3.42;;
68256;SDS011;55069;51.568;4.656;2023-04-03T05:42:11;10.88;;;3.15;;
68256;SDS011;55069;51.568;4.656;2023-04-03T05:44:38;6.18;;;3.03;;
68256;SDS011;55069;51.568;4.656;2023-04-03T05:47:04;8.13;;;3.85;;
68256;SDS011;55069;51.568;4.656;2023-04-03T05:49:30;11.45;;;2.92;;
68256;SDS011;55069;51.568;4.656;2023-04-03T05:51:56;5.40;;;2.85;;
68256;SDS011;55069;51.568;4.656;2023-04-03T05:54:26;6.23;;;2.30;;
68256;SDS011;55069;51.568;4.656;2023-04-03T05:57:09;8.73;;;2.88;;
68256;SDS011;55069;51.568;4.656;2023-04-03T05:59:35;6.40;;;2.80;;
68256;SDS011;55069;51.568;4.656;2023-04-03T06:02:01;5.00;;;2.43;;
68256;SDS011;55069;51.568;4.656;2023-04-03T06:04:27;6.63;;;2.80;;
68256;SDS011;55069;51.568;4.656;2023-04-03T06:06:53;7.00;;;2.50;;
68256;SDS011;55069;51.568;4.656;2023-04-03T06:09:22;3.50;;;2.40;;
68256;SDS011;55069;51.568;4.656;2023-04-03T06:11:50;4.93;;;2.50;;
68256;SDS011;55069;51.568;4.656;2023-04-03T06:14:18;7.60;;;2.65;;
68256;SDS011;55069;51.568;4.656;2023-04-03T06:16:44;7.50;;;2.67;;
68256;SDS011;55069;51.568;4.656;2023-04-03T06:19:11;4.40;;;2.40;;
68256;SDS011;55069;51.568;4.656;2023-04-03T06:21:41;8.00;;;2.60;;
68256;SDS011;55069;51.568;4.656;2023-04-03T06:24:07;5.88;;;2.38;;
68256;SDS011;55069;51.568;4.656;2023-04-03T06:26:34;3.43;;;1.80;;
68256;SDS011;55069;51.568;4.656;2023-04-03T06:29:00;6.28;;;2.20;;
68256;SDS011;55069;51.568;4.656;2023-04-03T06:31:27;6.95;;;2.60;;
68256;SDS011;55069;51.568;4.656;2023-04-03T06:33:53;8.17;;;2.47;;
68256;SDS011;55069;51.568;4.656;2023-04-03T06:36:19;6.07;;;2.50;;
68256;SDS011;55069;51.568;4.656;2023-04-03T06:38:46;7.50;;;2.13;;
68256;SDS011;55069;51.568;4.656;2023-04-03T06:41:12;5.90;;;2.40;;
68256;SDS011;55069;51.568;4.656;2023-04-03T06:43:38;6.15;;;2.42;;
68256;SDS011;55069;51.568;4.656;2023-04-03T06:46:04;6.43;;;2.50;;
68256;SDS011;55069;51.568;4.656;2023-04-03T06:48:30;5.43;;;2.40;;
68256;SDS011;55069;51.568;4.656;2023-04-03T06:50:56;2.70;;;2.03;;
68256;SDS011;55069;51.568;4.656;2023-04-03T06:53:22;5.55;;;2.63;;
68256;SDS011;55069;51.568;4.656;2023-04-03T06:55:48;5.22;;;2.58;;
68256;SDS011;55069;51.568;4.656;2023-04-03T06:58:14;6.37;;;2.50;;
68256;SDS011;55069;51.568;4.656;2023-04-03T07:00:42;6.90;;;2.08;;
68256;SDS011;55069;51.568;4.656;2023-04-03T07:03:08;7.13;;;2.28;;
68256;SDS011;55069;51.568;4.656;2023-04-03T07:05:34;5.53;;;2.27;;
68256;SDS011;55069;51.568;4.656;2023-04-03T07:07:59;7.05;;;2.45;;
68256;SDS011;55069;51.568;4.656;2023-04-03T07:10:25;8.30;;;2.22;;
68256;SDS011;55069;51.568;4.656;2023-04-03T07:12:51;8.27;;;2.30;;
68256;SDS011;55069;51.568;4.656;2023-04-03T07:15:17;5.47;;;1.92;;
68256;SDS011;55069;51.568;4.656;2023-04-03T07:17:43;5.72;;;2.10;;
68256;SDS011;55069;51.568;4.656;2023-04-03T07:20:09;6.63;;;2.27;;
68256;SDS011;55069;51.568;4.656;2023-04-03T07:22:36;6.22;;;1.77;;
68256;SDS011;55069;51.568;4.656;2023-04-03T07:25:02;4.47;;;1.80;;
68256;SDS011;55069;51.568;4.656;2023-04-03T07:27:28;7.40;;;2.40;;
68256;SDS011;55069;51.568;4.656;2023-04-03T07:29:54;4.23;;;1.90;;
68256;SDS011;55069;51.568;4.656;2023-04-03T07:32:21;3.30;;;1.83;;
68256;SDS011;55069;51.568;4.656;2023-04-03T07:34:47;5.22;;;2.30;;
68256;SDS011;55069;51.568;4.656;2023-04-03T07:37:13;8.17;;;2.43;;
68256;SDS011;55069;51.568;4.656;2023-04-03T07:39:39;6.20;;;1.95;;
68256;SDS011;55069;51.568;4.656;2023-04-03T07:42:10;3.72;;;1.83;;
68256;SDS011;55069;51.568;4.656;2023-04-03T07:44:37;7.38;;;2.28;;
68256;SDS011;55069;51.568;4.656;2023-04-03T07:47:03;8.03;;;2.40;;
68256;SDS011;55069;51.568;4.656;2023-04-03T07:49:29;7.90;;;2.17;;
68256;SDS011;55069;51.568;4.656;2023-04-03T07:51:55;6.15;;;1.75;;
68256;SDS011;55069;51.568;4.656;2023-04-03T07:54:21;4.60;;;2.50;;
68256;SDS011;55069;51.568;4.656;2023-04-03T07:56:46;5.18;;;1.83;;
68256;SDS011;55069;51.568;4.656;2023-04-03T07:59:12;3.47;;;1.30;;
68256;SDS011;55069;51.568;4.656;2023-04-03T08:01:38;5.90;;;1.73;;
68256;SDS011;55069;51.568;4.656;2023-04-03T08:04:03;8.90;;;2.03;;
68256;SDS011;55069;51.568;4.656;2023-04-03T08:06:30;6.82;;;1.60;;
68256;SDS011;55069;51.568;4.656;2023-04-03T08:08:58;3.40;;;1.58;;
68256;SDS011;55069;51.568;4.656;2023-04-03T08:11:24;7.63;;;1.20;;
68256;SDS011;55069;51.568;4.656;2023-04-03T08:13:51;10.10;;;1.50;;
68256;SDS011;55069;51.568;4.656;2023-04-03T08:16:18;6.25;;;2.13;;
68256;SDS011;55069;51.568;4.656;2023-04-03T08:18:47;5.53;;;1.70;;
68256;SDS011;55069;51.568;4.656;2023-04-03T08:21:14;5.22;;;1.40;;
68256;SDS011;55069;51.568;4.656;2023-04-03T08:23:41;7.80;;;1.50;;
68256;SDS011;55069;51.568;4.656;2023-04-03T08:26:10;6.57;;;1.63;;
68256;SDS011;55069;51.568;4.656;2023-04-03T08:28:41;6.50;;;1.60;;
68256;SDS011;55069;51.568;4.656;2023-04-03T08:31:08;4.38;;;1.52;;
68256;SDS011;55069;51.568;4.656;2023-04-03T08:33:37;7.20;;;1.83;;
68256;SDS011;55069;51.568;4.656;2023-04-03T08:36:04;3.97;;;0.95;;
68256;SDS011;55069;51.568;4.656;2023-04-03T08:38:41;5.95;;;1.42;;
68256;SDS011;55069;51.568;4.656;2023-04-03T08:41:11;5.90;;;1.70;;
68256;SDS011;55069;51.568;4.656;2023-04-03T08:46:23;4.15;;;1.30;;
68256;SDS011;55069;51.568;4.656;2023-04-03T08:49:02;2.85;;;1.17;;
68256;SDS011;55069;51.568;4.656;2023-04-03T08:51:30;5.35;;;1.35;;
68256;SDS011;55069;51.568;4.656;2023-04-03T08:53:59;6.63;;;1.27;;
68256;SDS011;55069;51.568;4.656;2023-04-03T08:56:29;6.63;;;1.05;;
68256;SDS011;55069;51.568;4.656;2023-04-03T08:59:00;4.25;;;1.30;;
68256;SDS011;55069;51.568;4.656;2023-04-03T09:01:33;4.47;;;0.90;;
68256;SDS011;55069;51.568;4.656;2023-04-03T09:04:09;6.28;;;1.00;;
68256;SDS011;55069;51.568;4.656;2023-04-03T09:06:42;3.73;;;0.93;;
68256;SDS011;55069;51.568;4.656;2023-04-03T09:19:49;4.07;;;1.00;;
68256;SDS011;55069;51.568;4.656;2023-04-03T09:22:24;4.20;;;1.08;;
68256;SDS011;55069;51.568;4.656;2023-04-03T09:27:41;4.77;;;1.13;;
68256;SDS011;55069;51.568;4.656;2023-04-03T09:30:23;2.92;;;0.88;;
68256;SDS011;55069;51.568;4.656;2023-04-03T09:32:51;5.78;;;1.65;;
68256;SDS011;55069;51.568;4.656;2023-04-03T09:35:25;1.65;;;0.80;;
68256;SDS011;55069;51.568;4.656;2023-04-03T09:37:55;1.65;;;1.02;;
68256;SDS011;55069;51.568;4.656;2023-04-03T09:42:51;2.67;;;0.82;;
68256;SDS011;55069;51.568;4.656;2023-04-03T09:45:27;4.40;;;0.82;;
68256;SDS011;55069;51.568;4.656;2023-04-03T09:53:39;4.25;;;1.00;;
68256;SDS011;55069;51.568;4.656;2023-04-03T09:58:41;2.15;;;0.68;;
68256;SDS011;55069;51.568;4.656;2023-04-03T10:01:21;2.35;;;0.80;;
68256;SDS011;55069;51.568;4.656;2023-04-03T10:06:38;2.08;;;0.55;;
68256;SDS011;55069;51.568;4.656;2023-04-03T10:09:21;3.20;;;0.75;;
68256;SDS011;55069;51.568;4.656;2023-04-03T10:12:01;1.33;;;0.32;;
68256;SDS011;55069;51.568;4.656;2023-04-03T10:14:35;2.47;;;0.88;;
68256;SDS011;55069;51.568;4.656;2023-04-03T10:17:10;1.63;;;0.53;;
68256;SDS011;55069;51.568;4.656;2023-04-03T10:19:53;2.47;;;0.55;;
68256;SDS011;55069;51.568;4.656;2023-04-03T10:25:21;2.50;;;0.63;;
68256;SDS011;55069;51.568;4.656;2023-04-03T10:28:01;2.50;;;0.73;;
68256;SDS011;55069;51.568;4.656;2023-04-03T10:45:20;3.03;;;0.50;;
68256;SDS011;55069;51.568;4.656;2023-04-03T10:50:22;3.85;;;0.68;;
68256;SDS011;55069;51.568;4.656;2023-04-03T10:53:13;3.15;;;0.57;;
68256;SDS011;55069;51.568;4.656;2023-04-03T10:58:44;2.00;;;0.40;;
68256;SDS011;55069;51.568;4.656;2023-04-03T11:01:13;1.73;;;0.40;;
68256;SDS011;55069;51.568;4.656;2023-04-03T11:03:47;1.92;;;0.70;;
68256;SDS011;55069;51.568;4.656;2023-04-03T11:06:15;1.58;;;0.50;;
68256;SDS011;55069;51.568;4.656;2023-04-03T11:08:55;1.13;;;0.40;;
68256;SDS011;55069;51.568;4.656;2023-04-03T11:11:26;1.40;;;0.70;;
68256;SDS011;55069;51.568;4.656;2023-04-03T11:14:00;3.30;;;0.60;;
68256;SDS011;55069;51.568;4.656;2023-04-03T11:16:48;1.75;;;0.55;;
68256;SDS011;55069;51.568;4.656;2023-04-03T11:28:00;3.05;;;0.38;;
68256;SDS011;55069;51.568;4.656;2023-04-03T11:35:42;0.97;;;0.40;;
68256;SDS011;55069;51.568;4.656;2023-04-03T11:38:30;2.88;;;0.82;;
68256;SDS011;55069;51.568;4.656;2023-04-03T11:41:04;1.40;;;0.40;;
68256;SDS011;55069;51.568;4.656;2023-04-03T11:43:32;1.08;;;0.30;;
68256;SDS011;55069;51.568;4.656;2023-04-03T11:46:03;2.40;;;0.30;;
68256;SDS011;55069;51.568;4.656;2023-04-03T11:50:57;2.10;;;0.60;;
68256;SDS011;55069;51.568;4.656;2023-04-03T12:04:19;0.55;;;0.38;;
68256;SDS011;55069;51.568;4.656;2023-04-03T12:09:25;1.43;;;0.50;;
68256;SDS011;55069;51.568;4.656;2023-04-03T12:11:56;4.15;;;0.70;;
68256;SDS011;55069;51.568;4.656;2023-04-03T12:14:24;1.20;;;0.40;;
68256;SDS011;55069;51.568;4.656;2023-04-03T12:16:51;1.48;;;0.45;;
68256;SDS011;55069;51.568;4.656;2023-04-03T12:19:33;2.03;;;0.30;;
68256;SDS011;55069;51.568;4.656;2023-04-03T12:22:07;2.85;;;0.38;;
68256;SDS011;55069;51.568;4.656;2023-04-03T12:24:53;1.00;;;0.40;;
68256;SDS011;55069;51.568;4.656;2023-04-03T12:46:24;6.57;;;0.60;;
68256;SDS011;55069;51.568;4.656;2023-04-03T12:48:58;1.08;;;0.40;;
68256;SDS011;55069;51.568;4.656;2023-04-03T12:51:30;2.08;;;0.50;;
68256;SDS011;55069;51.568;4.656;2023-04-03T12:54:52;1.67;;;0.43;;
68256;SDS011;55069;51.568;4.656;2023-04-03T12:57:11;1.13;;;0.45;;
68256;SDS011;55069;51.568;4.656;2023-04-03T12:59:43;2.55;;;0.77;;
68256;SDS011;55069;51.568;4.656;2023-04-03T13:02:30;2.53;;;0.55;;
68256;SDS011;55069;51.568;4.656;2023-04-03T13:05:18;0.95;;;0.70;;
68256;SDS011;55069;51.568;4.656;2023-04-03T13:07:48;5.10;;;0.60;;
68256;SDS011;55069;51.568;4.656;2023-04-03T13:10:17;1.40;;;0.50;;
68256;SDS011;55069;51.568;4.656;2023-04-03T13:15:16;1.00;;;0.50;;
68256;SDS011;55069;51.568;4.656;2023-04-03T13:17:45;3.92;;;0.80;;
68256;SDS011;55069;51.568;4.656;2023-04-03T13:20:34;1.17;;;0.50;;
68256;SDS011;55069;51.568;4.656;2023-04-03T13:23:02;2.00;;;0.65;;
68256;SDS011;55069;51.568;4.656;2023-04-03T13:25:35;1.80;;;0.60;;
68256;SDS011;55069;51.568;4.656;2023-04-03T13:28:05;1.83;;;0.55;;
68256;SDS011;55069;51.568;4.656;2023-04-03T13:30:38;1.40;;;0.60;;
68256;SDS011;55069;51.568;4.656;2023-04-03T13:33:18;2.03;;;0.50;;
68256;SDS011;55069;51.568;4.656;2023-04-03T13:35:47;1.40;;;0.50;;
68256;SDS011;55069;51.568;4.656;2023-04-03T13:38:45;2.28;;;0.50;;
68256;SDS011;55069;51.568;4.656;2023-04-03T13:44:17;3.20;;;0.70;;
68256;SDS011;55069;51.568;4.656;2023-04-03T13:46:43;5.00;;;0.90;;
68256;SDS011;55069;51.568;4.656;2023-04-03T13:49:19;3.15;;;0.55;;
68256;SDS011;55069;51.568;4.656;2023-04-03T13:51:46;3.45;;;0.68;;
68256;SDS011;55069;51.568;4.656;2023-04-03T13:54:21;1.95;;;0.70;;
68256;SDS011;55069;51.568;4.656;2023-04-03T13:56:56;2.30;;;0.70;;
68256;SDS011;55069;51.568;4.656;2023-04-03T13:59:24;1.42;;;0.60;;
68256;SDS011;55069;51.568;4.656;2023-04-03T14:04:29;5.63;;;0.80;;
68256;SDS011;55069;51.568;4.656;2023-04-03T14:06:57;3.72;;;0.60;;
68256;SDS011;55069;51.568;4.656;2023-04-03T14:09:25;2.10;;;0.60;;
68256;SDS011;55069;51.568;4.656;2023-04-03T14:11:53;3.03;;;0.70;;
68256;SDS011;55069;51.568;4.656;2023-04-03T14:14:22;5.75;;;0.60;;
68256;SDS011;55069;51.568;4.656;2023-04-03T14:16:51;1.50;;;0.80;;
68256;SDS011;55069;51.568;4.656;2023-04-03T14:19:26;2.60;;;0.90;;
68256;SDS011;55069;51.568;4.656;2023-04-03T14:21:54;2.67;;;0.88;;
68256;SDS011;55069;51.568;4.656;2023-04-03T14:24:20;1.85;;;0.50;;
68256;SDS011;55069;51.568;4.656;2023-04-03T14:26:48;3.33;;;1.08;;
68256;SDS011;55069;51.568;4.656;2023-04-03T14:29:16;3.45;;;0.90;;
68256;SDS011;55069;51.568;4.656;2023-04-03T14:31:43;1.90;;;0.70;;
68256;SDS011;55069;51.568;4.656;2023-04-03T14:34:11;3.35;;;1.00;;
68256;SDS011;55069;51.568;4.656;2023-04-03T14:36:38;3.67;;;0.90;;
68256;SDS011;55069;51.568;4.656;2023-04-03T14:39:04;3.22;;;0.73;;
68256;SDS011;55069;51.568;4.656;2023-04-03T14:41:31;3.00;;;1.10;;
68256;SDS011;55069;51.568;4.656;2023-04-03T14:43:57;2.73;;;0.80;;
68256;SDS011;55069;51.568;4.656;2023-04-03T14:46:30;3.63;;;1.20;;
68256;SDS011;55069;51.568;4.656;2023-04-03T14:48:59;2.42;;;1.08;;
68256;SDS011;55069;51.568;4.656;2023-04-03T14:51:25;2.95;;;0.70;;
68256;SDS011;55069;51.568;4.656;2023-04-03T14:53:51;4.50;;;0.80;;
68256;SDS011;55069;51.568;4.656;2023-04-03T14:56:27;4.00;;;1.15;;
68256;SDS011;55069;51.568;4.656;2023-04-03T14:58:58;2.90;;;0.80;;
68256;SDS011;55069;51.568;4.656;2023-04-03T15:01:26;4.38;;;1.27;;
68256;SDS011;55069;51.568;4.656;2023-04-03T15:03:53;1.95;;;0.90;;
68256;SDS011;55069;51.568;4.656;2023-04-03T15:06:19;3.83;;;0.90;;
68256;SDS011;55069;51.568;4.656;2023-04-03T15:08:46;2.75;;;0.98;;
68256;SDS011;55069;51.568;4.656;2023-04-03T15:11:13;3.83;;;0.87;;
68256;SDS011;55069;51.568;4.656;2023-04-03T15:13:40;1.20;;;0.68;;
68256;SDS011;55069;51.568;4.656;2023-04-03T15:16:10;4.25;;;1.40;;
68256;SDS011;55069;51.568;4.656;2023-04-03T15:18:41;3.67;;;1.08;;
68256;SDS011;55069;51.568;4.656;2023-04-03T15:21:07;2.97;;;1.00;;
68256;SDS011;55069;51.568;4.656;2023-04-03T15:23:32;3.03;;;1.00;;
68256;SDS011;55069;51.568;4.656;2023-04-03T15:25:58;3.33;;;1.00;;
68256;SDS011;55069;51.568;4.656;2023-04-03T15:30:53;3.90;;;1.25;;
68256;SDS011;55069;51.568;4.656;2023-04-03T15:33:19;5.03;;;1.38;;
68256;SDS011;55069;51.568;4.656;2023-04-03T15:35:45;2.65;;;0.98;;
68256;SDS011;55069;51.568;4.656;2023-04-03T15:38:11;2.83;;;1.02;;
68256;SDS011;55069;51.568;4.656;2023-04-03T15:40:37;3.83;;;1.30;;
68256;SDS011;55069;51.568;4.656;2023-04-03T15:43:03;3.43;;;1.03;;
68256;SDS011;55069;51.568;4.656;2023-04-03T15:45:30;3.45;;;1.23;;
68256;SDS011;55069;51.568;4.656;2023-04-03T15:47:56;2.60;;;1.08;;
68256;SDS011;55069;51.568;4.656;2023-04-03T15:50:22;2.45;;;1.20;;
68256;SDS011;55069;51.568;4.656;2023-04-03T15:52:49;4.33;;;0.97;;
68256;SDS011;55069;51.568;4.656;2023-04-03T15:55:20;2.55;;;1.00;;
68256;SDS011;55069;51.568;4.656;2023-04-03T15:57:47;5.97;;;1.20;;
68256;SDS011;55069;51.568;4.656;2023-04-03T16:00:13;2.78;;;1.30;;
68256;SDS011;55069;51.568;4.656;2023-04-03T16:02:40;4.30;;;1.00;;
68256;SDS011;55069;51.568;4.656;2023-04-03T16:05:07;4.78;;;1.30;;
68256;SDS011;55069;51.568;4.656;2023-04-03T16:07:34;4.97;;;1.23;;
68256;SDS011;55069;51.568;4.656;2023-04-03T16:10:01;4.03;;;1.17;;
68256;SDS011;55069;51.568;4.656;2023-04-03T16:12:27;3.93;;;1.50;;
68256;SDS011;55069;51.568;4.656;2023-04-03T16:14:53;3.63;;;1.00;;
68256;SDS011;55069;51.568;4.656;2023-04-03T16:17:18;7.07;;;1.60;;
68256;SDS011;55069;51.568;4.656;2023-04-03T16:19:45;2.85;;;1.13;;
68256;SDS011;55069;51.568;4.656;2023-04-03T16:22:10;2.00;;;1.13;;
68256;SDS011;55069;51.568;4.656;2023-04-03T16:24:36;3.83;;;1.20;;
68256;SDS011;55069;51.568;4.656;2023-04-03T16:27:03;5.30;;;1.30;;
68256;SDS011;55069;51.568;4.656;2023-04-03T16:29:30;2.10;;;1.20;;
68256;SDS011;55069;51.568;4.656;2023-04-03T16:31:56;2.10;;;1.27;;
68256;SDS011;55069;51.568;4.656;2023-04-03T16:34:23;3.10;;;1.20;;
68256;SDS011;55069;51.568;4.656;2023-04-03T16:36:51;3.42;;;1.45;;
68256;SDS011;55069;51.568;4.656;2023-04-03T16:39:20;5.80;;;1.13;;
68256;SDS011;55069;51.568;4.656;2023-04-03T16:41:45;3.83;;;1.20;;
68256;SDS011;55069;51.568;4.656;2023-04-03T16:44:11;6.33;;;1.33;;
68256;SDS011;55069;51.568;4.656;2023-04-03T16:46:37;4.97;;;1.20;;
68256;SDS011;55069;51.568;4.656;2023-04-03T16:49:03;2.90;;;1.10;;
68256;SDS011;55069;51.568;4.656;2023-04-03T16:51:29;3.27;;;1.20;;
68256;SDS011;55069;51.568;4.656;2023-04-03T16:53:55;3.70;;;1.30;;